createdAt,value
2023-05-14T00:01:42.857Z,71.84
2023-05-14T00:04:16.561Z,72.42
2023-05-14T00:06:45.211Z,71.51
2023-05-14T00:09:13.215Z,72.09
2023-05-14T00:11:46.420Z,71.66
2023-05-14T00:14:15.898Z,72.91
2023-05-14T00:16:45.895Z,71.99
2023-05-14T00:19:22.290Z,72.04
2023-05-14T00:21:50.690Z,72.93
2023-05-14T00:24:37.802Z,73.24
2023-05-14T00:27:10.328Z,72.95
2023-05-14T00:29:42.935Z,73.19
2023-05-14T00:32:12.260Z,73.63
2023-05-14T00:34:44.581Z,73.80
2023-05-14T00:37:12.583Z,74.27
2023-05-14T00:39:43.079Z,73.89
2023-05-14T00:42:22.801Z,73.61
2023-05-14T00:44:52.371Z,73.49
2023-05-14T00:50:09.065Z,74.50
2023-05-14T00:52:37.983Z,74.26
2023-05-14T00:55:10.520Z,74.46
2023-05-14T00:57:38.442Z,75.39
2023-05-14T01:00:14.960Z,75.97
2023-05-14T01:02:42.889Z,76.43
2023-05-14T01:05:12.553Z,77.55
2023-05-14T01:07:49.923Z,78.24
2023-05-14T01:10:23.768Z,77.57
2023-05-14T01:13:01.218Z,77.10
2023-05-14T01:15:35.051Z,76.95
2023-05-14T01:18:08.861Z,76.48
2023-05-14T01:20:40.645Z,76.41
2023-05-14T01:23:10.292Z,76.48
2023-05-14T01:25:41.031Z,76.62
2023-05-14T01:28:18.171Z,76.65
2023-05-14T01:30:51.312Z,77.56
2023-05-14T01:33:21.397Z,77.91
2023-05-14T01:36:00.758Z,78.51
2023-05-14T01:38:31.973Z,78.34
2023-05-14T01:41:00.544Z,78.09
2023-05-14T01:43:28.704Z,77.85
2023-05-14T01:46:05.855Z,78.77
2023-05-14T01:48:34.891Z,78.56
2023-05-14T01:51:03.196Z,78.46
2023-05-14T01:53:34.936Z,79.17
2023-05-14T01:56:03.422Z,79.90
2023-05-14T01:58:31.624Z,80.64
2023-05-14T02:01:02.519Z,80.49
2023-05-14T02:03:30.296Z,80.19
2023-05-14T02:06:01.063Z,80.10
2023-05-14T02:08:29.031Z,79.99
2023-05-14T02:11:02.293Z,79.23
2023-05-14T02:13:32.393Z,79.17
2023-05-14T02:16:03.537Z,79.89
2023-05-14T02:18:38.222Z,79.71
2023-05-14T02:21:10.175Z,78.61
2023-05-14T02:23:42.180Z,78.25
2023-05-14T02:26:13.034Z,78.12
2023-05-14T02:28:42.448Z,78.77
2023-05-14T02:31:14.791Z,77.37
2023-05-14T02:33:51.443Z,77.56
2023-05-14T02:36:19.544Z,77.21
2023-05-14T02:38:48.928Z,77.95
2023-05-14T02:41:18.633Z,77.91
2023-05-14T02:43:50.004Z,77.29
2023-05-14T02:46:18.195Z,78.40
2023-05-14T02:48:46.536Z,79.52
2023-05-14T02:51:16.090Z,78.42
2023-05-14T02:53:46.862Z,77.92
2023-05-14T02:56:15.652Z,79.08
2023-05-14T02:58:48.733Z,77.51
2023-05-14T03:01:19.100Z,78.38
2023-05-14T03:03:48.791Z,79.15
2023-05-14T03:06:19.946Z,77.41
2023-05-14T03:08:52.066Z,78.31
2023-05-14T03:11:21.737Z,77.59
2023-05-14T03:14:03.494Z,79.13
2023-05-14T03:16:33.487Z,79.38
2023-05-14T03:19:06.535Z,80.04
2023-05-14T03:21:34.664Z,80.54
2023-05-14T03:24:05.507Z,81.37
2023-05-14T03:26:38.666Z,82.58
2023-05-14T03:29:08.378Z,83.72
2023-05-14T03:31:40.483Z,84.12
2023-05-14T03:34:08.247Z,84.38
2023-05-14T03:36:36.349Z,85.71
2023-05-14T03:39:06.493Z,84.70
2023-05-14T03:41:38.106Z,84.02
2023-05-14T03:44:08.151Z,83.04
2023-05-14T03:46:39.456Z,82.91
2023-05-14T03:49:09.431Z,83.26
2023-05-14T03:51:37.515Z,81.90
2023-05-14T03:54:10.030Z,82.00
2023-05-14T03:56:38.704Z,82.43
2023-05-14T03:59:10.234Z,82.20
2023-05-14T04:01:38.747Z,82.55
2023-05-14T04:04:07.105Z,82.59
2023-05-14T04:06:36.888Z,82.86
2023-05-14T04:09:05.536Z,84.21
2023-05-14T04:11:33.540Z,84.19
2023-05-14T04:14:02.820Z,84.67
2023-05-14T04:16:32.522Z,84.61
2023-05-14T04:19:03.336Z,85.03
2023-05-14T04:21:31.564Z,84.77
2023-05-14T04:24:00.408Z,85.39
2023-05-14T04:26:28.826Z,85.54
2023-05-14T04:28:56.488Z,85.64
2023-05-14T04:31:28.846Z,84.83
2023-05-14T04:34:01.434Z,84.43
2023-05-14T04:36:33.598Z,84.39
2023-05-14T04:39:10.447Z,84.53
2023-05-14T04:41:38.428Z,84.42
2023-05-14T04:44:07.114Z,82.34
2023-05-14T04:46:39.173Z,80.26
2023-05-14T04:49:09.399Z,79.95
2023-05-14T04:51:37.699Z,79.70
2023-05-14T04:54:08.760Z,79.13
2023-05-14T04:56:37.150Z,81.36
2023-05-14T04:59:08.857Z,78.57
2023-05-14T05:01:39.907Z,77.77
2023-05-14T05:04:11.760Z,76.42
2023-05-14T05:06:40.132Z,76.91
2023-05-14T05:09:14.995Z,77.29
2023-05-14T05:11:43.052Z,77.51
2023-05-14T05:14:11.026Z,77.82
2023-05-14T05:16:39.268Z,78.57
2023-05-14T05:19:10.148Z,78.90
2023-05-14T05:21:46.499Z,79.50
2023-05-14T05:24:17.089Z,78.77
2023-05-14T05:26:44.821Z,78.06
2023-05-14T05:29:12.504Z,77.73
2023-05-14T05:31:42.710Z,78.12
2023-05-14T05:34:11.119Z,77.88
2023-05-14T05:36:40.773Z,77.81
2023-05-14T05:39:11.610Z,77.44
2023-05-14T05:41:45.618Z,77.15
2023-05-14T05:44:19.863Z,77.16
2023-05-14T05:46:52.009Z,81.74
2023-05-14T05:49:26.201Z,81.69
2023-05-14T05:51:58.025Z,78.21
2023-05-14T05:54:28.773Z,77.97
2023-05-14T05:57:08.549Z,77.63
2023-05-14T05:59:37.461Z,78.01
2023-05-14T06:02:08.949Z,78.26
2023-05-14T06:04:45.597Z,77.98
2023-05-14T06:07:19.117Z,78.49
2023-05-14T06:09:50.390Z,78.71
2023-05-14T06:12:26.111Z,78.17
2023-05-14T06:15:01.393Z,78.87
2023-05-14T06:17:29.332Z,77.76
2023-05-14T06:19:59.568Z,76.88
2023-05-14T06:22:31.247Z,76.95
2023-05-14T06:25:00.882Z,76.61
2023-05-14T06:27:30.955Z,76.18
2023-05-14T06:30:01.805Z,75.98
2023-05-14T06:32:34.751Z,75.77
2023-05-14T06:35:09.415Z,74.75
2023-05-14T06:37:39.151Z,75.16
2023-05-14T06:40:10.239Z,74.95
2023-05-14T06:42:40.536Z,75.29
2023-05-14T06:45:09.143Z,75.33
2023-05-14T06:47:39.935Z,75.00
2023-05-14T06:50:10.654Z,74.64
2023-05-14T06:52:40.663Z,73.84
2023-05-14T06:55:22.255Z,74.47
2023-05-14T06:57:53.280Z,74.05
2023-05-14T07:00:26.732Z,73.87
2023-05-14T07:02:58.969Z,73.82
2023-05-14T07:05:27.133Z,72.60
2023-05-14T07:08:03.121Z,71.90
2023-05-14T07:10:32.997Z,72.21
2023-05-14T07:13:09.529Z,71.17
2023-05-14T07:15:37.876Z,70.57
2023-05-14T07:18:05.954Z,71.11
2023-05-14T07:20:36.746Z,71.97
2023-05-14T07:23:08.192Z,71.50
2023-05-14T07:25:36.000Z,72.18
2023-05-14T07:28:04.191Z,70.12
2023-05-14T07:30:34.361Z,70.14
2023-05-14T07:33:05.369Z,69.44
2023-05-14T07:35:36.316Z,70.23
2023-05-14T07:38:06.399Z,71.44
2023-05-14T07:40:34.643Z,71.62
2023-05-14T07:43:10.783Z,72.10
2023-05-14T07:45:39.217Z,71.55
2023-05-14T07:48:07.546Z,71.71
2023-05-14T07:50:43.867Z,69.90
2023-05-14T07:53:12.962Z,69.68
2023-05-14T07:55:41.724Z,69.25
2023-05-14T07:58:09.794Z,68.71
2023-05-14T08:00:38.316Z,69.34
2023-05-14T08:03:10.554Z,70.05
2023-05-14T08:05:39.087Z,68.51
2023-05-14T08:08:10.842Z,69.18
2023-05-14T08:10:44.042Z,71.19
2023-05-14T08:13:13.118Z,71.15
2023-05-14T08:15:43.252Z,71.69
2023-05-14T08:18:13.654Z,71.46
2023-05-14T08:20:46.585Z,71.35
2023-05-14T08:23:17.569Z,71.45
2023-05-14T08:25:56.004Z,70.96
2023-05-14T08:28:25.204Z,70.91
2023-05-14T08:30:54.551Z,70.47
2023-05-14T08:33:27.449Z,68.82
2023-05-14T08:35:59.250Z,68.00
2023-05-14T08:38:27.008Z,66.39
2023-05-14T08:41:00.973Z,66.02
2023-05-14T08:43:34.657Z,67.12
2023-05-14T08:46:04.971Z,67.91
2023-05-14T08:48:38.215Z,66.13
2023-05-14T08:51:11.164Z,65.31
2023-05-14T08:53:40.578Z,64.79
2023-05-14T08:56:13.387Z,64.39
2023-05-14T08:58:46.170Z,65.04
2023-05-14T09:01:16.772Z,64.01
2023-05-14T09:03:47.819Z,64.70
2023-05-14T09:06:17.100Z,64.39
2023-05-14T09:08:50.192Z,64.58
2023-05-14T09:11:20.526Z,64.32
2023-05-14T09:13:58.809Z,64.53
2023-05-14T09:16:27.520Z,66.14
2023-05-14T09:19:00.842Z,66.42
2023-05-14T09:21:35.736Z,69.73
2023-05-14T09:24:04.204Z,68.60
2023-05-14T09:26:41.830Z,67.05
2023-05-14T09:29:14.561Z,69.52
2023-05-14T09:31:47.578Z,67.61
2023-05-14T09:34:25.211Z,66.77
2023-05-14T09:36:59.063Z,65.73
2023-05-14T09:39:27.950Z,66.03
2023-05-14T09:42:02.679Z,65.18
2023-05-14T09:44:31.943Z,65.98
2023-05-14T09:47:04.450Z,66.00
2023-05-14T09:49:32.569Z,65.73
2023-05-14T09:52:01.330Z,64.55
2023-05-14T09:54:30.761Z,65.89
2023-05-14T09:57:05.283Z,65.10
2023-05-14T09:59:35.724Z,64.38
2023-05-14T10:02:04.351Z,64.98
2023-05-14T10:04:34.629Z,63.20
2023-05-14T10:07:03.460Z,62.64
2023-05-14T10:09:31.242Z,64.39
2023-05-14T10:12:06.624Z,65.72
2023-05-14T10:14:40.345Z,64.92
2023-05-14T10:17:18.849Z,65.28
2023-05-14T10:19:54.828Z,64.95
2023-05-14T10:22:30.402Z,64.71
2023-05-14T10:25:05.047Z,63.17
2023-05-14T10:27:38.373Z,62.54
2023-05-14T10:30:14.664Z,62.31
2023-05-14T10:32:48.761Z,62.25
2023-05-14T10:35:18.492Z,62.74
2023-05-14T10:37:47.816Z,62.58
2023-05-14T10:40:19.509Z,63.84
2023-05-14T10:42:50.763Z,63.45
2023-05-14T10:45:22.450Z,63.33
2023-05-14T10:47:51.088Z,62.60
2023-05-14T10:50:25.051Z,62.11
2023-05-14T10:52:57.262Z,61.73
2023-05-14T10:55:29.692Z,61.79
2023-05-14T10:58:05.352Z,61.23
2023-05-14T11:00:36.876Z,59.21
2023-05-14T11:03:05.765Z,60.31
2023-05-14T11:05:37.274Z,62.09
2023-05-14T11:08:10.471Z,62.27
2023-05-14T11:10:42.536Z,62.78
2023-05-14T11:13:18.688Z,62.84
2023-05-14T11:15:49.910Z,64.37
2023-05-14T11:18:30.076Z,67.39
2023-05-14T11:21:00.311Z,67.96
2023-05-14T11:23:31.847Z,68.35
2023-05-14T11:26:00.235Z,66.72
2023-05-14T11:28:36.380Z,65.14
2023-05-14T11:31:05.944Z,65.39
2023-05-14T11:33:36.124Z,64.59
2023-05-14T11:36:08.127Z,63.35
2023-05-14T11:38:36.104Z,62.70
2023-05-14T11:41:05.822Z,64.72
2023-05-14T11:43:38.049Z,65.24
2023-05-14T11:46:08.441Z,63.62
2023-05-14T11:48:36.346Z,61.21
2023-05-14T11:51:06.166Z,60.77
2023-05-14T11:53:37.309Z,59.32
2023-05-14T11:56:09.649Z,60.33
2023-05-14T11:58:43.644Z,59.82
2023-05-14T12:01:20.481Z,59.39
2023-05-14T12:03:55.849Z,60.61
2023-05-14T12:06:34.408Z,60.38
2023-05-14T12:09:03.305Z,61.92
2023-05-14T12:11:32.919Z,60.71
2023-05-14T12:14:14.620Z,57.85
2023-05-14T12:16:44.089Z,56.69
2023-05-14T12:19:13.059Z,56.28
2023-05-14T12:21:44.901Z,58.65
2023-05-14T12:24:13.998Z,59.10
2023-05-14T12:26:48.948Z,63.05
2023-05-14T12:29:19.058Z,64.44
2023-05-14T12:31:49.476Z,64.50
2023-05-14T12:34:18.918Z,64.39
2023-05-14T12:36:47.415Z,63.61
2023-05-14T12:39:17.259Z,63.23
2023-05-14T12:41:45.340Z,59.74
2023-05-14T12:44:15.510Z,58.92
2023-05-14T12:46:46.011Z,60.33
2023-05-14T12:49:14.163Z,61.03
2023-05-14T12:51:43.355Z,62.58
2023-05-14T12:54:12.086Z,64.78
2023-05-14T12:56:42.906Z,65.12
2023-05-14T12:59:13.340Z,65.26
2023-05-14T13:01:46.726Z,64.59
2023-05-14T13:04:14.754Z,65.09
2023-05-14T13:06:45.895Z,63.94
2023-05-14T13:09:19.744Z,63.10
2023-05-14T13:11:49.614Z,63.26
2023-05-14T13:14:20.105Z,64.29
2023-05-14T13:16:52.216Z,64.95
2023-05-14T13:19:22.796Z,65.12
2023-05-14T13:21:51.147Z,63.15
2023-05-14T13:24:19.852Z,63.38
2023-05-14T13:26:47.623Z,64.38
2023-05-14T13:29:23.014Z,64.45
2023-05-14T13:31:57.662Z,62.60
2023-05-14T13:34:36.001Z,60.90
2023-05-14T13:37:05.826Z,62.46
2023-05-14T13:39:33.690Z,63.07
2023-05-14T13:42:11.015Z,61.63
2023-05-14T13:44:42.667Z,61.54
2023-05-14T13:47:13.136Z,62.85
2023-05-14T13:49:43.847Z,63.92
2023-05-14T13:52:11.608Z,63.74
2023-05-14T13:54:39.469Z,64.42
2023-05-14T13:57:07.619Z,64.52
2023-05-14T13:59:38.326Z,64.69
2023-05-14T14:02:17.758Z,64.54
2023-05-14T14:04:49.410Z,64.79
2023-05-14T14:07:21.123Z,63.97
2023-05-14T14:09:49.197Z,63.94
2023-05-14T14:12:17.043Z,62.29
2023-05-14T14:14:44.829Z,60.85
2023-05-14T14:17:12.587Z,60.51
2023-05-14T14:19:45.181Z,63.53
2023-05-14T14:22:19.646Z,64.04
2023-05-14T14:25:10.178Z,64.74
2023-05-14T14:27:38.909Z,64.69
2023-05-14T14:30:15.497Z,65.07
2023-05-14T14:32:45.014Z,65.26
2023-05-14T14:35:18.799Z,65.35
2023-05-14T14:37:53.770Z,64.16
2023-05-14T14:40:24.529Z,61.92
2023-05-14T14:42:56.839Z,60.76
2023-05-14T14:45:25.040Z,60.74
2023-05-14T14:48:15.482Z,61.22
2023-05-14T14:50:43.323Z,60.37
2023-05-14T14:53:12.997Z,60.73
2023-05-14T14:55:41.005Z,59.92
2023-05-14T14:58:10.719Z,58.75
2023-05-14T15:00:41.674Z,55.32
2023-05-14T15:03:11.876Z,56.64
2023-05-14T15:05:43.679Z,58.18
2023-05-14T15:08:15.354Z,56.23
2023-05-14T15:10:45.958Z,55.41
2023-05-14T15:13:14.775Z,55.39
2023-05-14T15:15:42.547Z,53.35
2023-05-14T15:18:11.666Z,56.00
2023-05-14T15:20:39.780Z,56.66
2023-05-14T15:23:11.668Z,55.80
2023-05-14T15:25:43.970Z,55.33
2023-05-14T15:28:14.165Z,55.79
2023-05-14T15:30:42.027Z,55.64
2023-05-14T15:33:10.225Z,55.35
2023-05-14T15:35:39.920Z,56.87
2023-05-14T15:38:09.557Z,57.76
2023-05-14T15:40:37.469Z,57.46
2023-05-14T15:43:06.652Z,59.28
2023-05-14T15:45:41.212Z,59.75
2023-05-14T15:48:09.366Z,60.66
2023-05-14T15:50:40.124Z,58.64
2023-05-14T15:53:07.892Z,56.94
2023-05-14T15:55:35.816Z,56.85
2023-05-14T15:58:10.447Z,56.44
2023-05-14T16:00:40.372Z,56.07
2023-05-14T16:03:08.324Z,56.99
2023-05-14T16:05:36.983Z,57.71
2023-05-14T16:08:13.424Z,58.04
2023-05-14T16:10:41.754Z,58.82
2023-05-14T16:13:10.005Z,59.32
2023-05-14T16:15:43.928Z,57.76
2023-05-14T16:18:11.791Z,56.39
2023-05-14T16:20:39.579Z,55.97
2023-05-14T16:23:10.225Z,55.79
2023-05-14T16:25:38.401Z,56.12
2023-05-14T16:28:15.452Z,55.30
2023-05-14T16:30:45.266Z,56.48
2023-05-14T16:33:13.447Z,57.61
2023-05-14T16:35:44.617Z,58.38
2023-05-14T16:38:14.963Z,58.62
2023-05-14T16:40:43.106Z,58.98
2023-05-14T16:43:10.904Z,58.36
2023-05-14T16:45:40.688Z,57.95
2023-05-14T16:50:56.128Z,58.76
2023-05-14T16:53:29.314Z,58.34
2023-05-14T16:55:57.117Z,59.65
2023-05-14T16:58:25.621Z,59.67
2023-05-14T17:00:54.775Z,60.27
2023-05-14T17:03:26.974Z,60.14
2023-05-14T17:05:55.873Z,60.01
2023-05-14T17:08:24.069Z,60.75
2023-05-14T17:10:52.322Z,59.87
2023-05-14T17:13:26.690Z,60.66
2023-05-14T17:15:56.522Z,60.28
2023-05-14T17:18:28.009Z,60.07
2023-05-14T17:20:59.204Z,60.61
2023-05-14T17:23:30.222Z,60.37
2023-05-14T17:25:58.335Z,60.60
2023-05-14T17:28:29.903Z,60.95
2023-05-14T17:30:58.757Z,61.08
2023-05-14T17:33:29.890Z,61.71
2023-05-14T17:36:01.638Z,61.62
2023-05-14T17:38:32.014Z,61.53
2023-05-14T17:41:05.004Z,61.27
2023-05-14T17:43:35.214Z,60.72
2023-05-14T17:46:06.801Z,62.07
2023-05-14T17:48:39.272Z,62.92
2023-05-14T17:51:09.058Z,63.23
2023-05-14T17:53:37.374Z,63.26
2023-05-14T17:56:12.487Z,64.21
2023-05-14T17:58:45.332Z,63.55
2023-05-14T18:01:13.718Z,63.79
2023-05-14T18:03:46.769Z,63.67
2023-05-14T18:06:19.260Z,63.07
2023-05-14T18:08:47.031Z,62.78
2023-05-14T18:11:14.792Z,62.86
2023-05-14T18:13:46.970Z,62.45
2023-05-14T18:16:16.692Z,62.34
2023-05-14T18:18:47.711Z,61.73
2023-05-14T18:21:18.153Z,60.97
2023-05-14T18:23:47.874Z,60.88
2023-05-14T18:26:18.212Z,60.97
2023-05-14T18:28:48.349Z,60.96
2023-05-14T18:31:18.904Z,60.92
2023-05-14T18:33:50.907Z,60.89
2023-05-14T18:36:22.499Z,60.48
2023-05-14T18:38:52.421Z,60.21
2023-05-14T18:41:24.999Z,60.71
2023-05-14T18:43:55.493Z,61.13
2023-05-14T18:46:23.706Z,61.19
2023-05-14T18:48:55.767Z,61.75
2023-05-14T18:51:23.578Z,61.36
2023-05-14T18:53:51.900Z,60.90
2023-05-14T18:56:21.979Z,61.47
2023-05-14T18:59:04.223Z,61.94
2023-05-14T19:01:33.088Z,62.99
2023-05-14T19:04:20.203Z,63.15
2023-05-14T19:06:51.278Z,62.84
2023-05-14T19:09:21.118Z,63.28
2023-05-14T19:11:49.266Z,63.03
2023-05-14T19:14:27.344Z,63.39
2023-05-14T19:17:00.143Z,63.11
2023-05-14T19:19:34.490Z,62.42
2023-05-14T19:22:02.754Z,63.63
2023-05-14T19:24:31.001Z,65.14
2023-05-14T19:27:02.852Z,65.02
2023-05-14T19:29:32.694Z,65.70
2023-05-14T19:32:03.101Z,67.62
2023-05-14T19:34:34.522Z,66.45
2023-05-14T19:37:02.387Z,66.34
2023-05-14T19:39:30.681Z,67.66
2023-05-14T19:42:02.660Z,68.32
2023-05-14T19:44:34.985Z,68.66
2023-05-14T19:47:02.822Z,69.24
2023-05-14T19:49:34.620Z,68.85
2023-05-14T19:52:03.788Z,70.57
2023-05-14T19:54:34.053Z,73.70
2023-05-14T19:57:04.700Z,75.23
2023-05-14T19:59:40.808Z,74.79
2023-05-14T20:02:09.239Z,74.39
2023-05-14T20:04:40.422Z,75.13
2023-05-14T20:07:15.964Z,75.28
2023-05-14T20:09:46.388Z,73.20
2023-05-14T20:12:21.232Z,73.34
2023-05-14T20:14:49.409Z,72.96
2023-05-14T20:17:18.852Z,70.73
2023-05-14T20:19:50.917Z,69.57
2023-05-14T20:22:24.981Z,69.01
2023-05-14T20:25:00.388Z,70.34
2023-05-14T20:27:30.780Z,69.09
2023-05-14T20:30:02.098Z,71.79
2023-05-14T20:32:35.661Z,72.55
2023-05-14T20:35:07.561Z,71.29
2023-05-14T20:37:38.101Z,71.06
2023-05-14T20:40:10.469Z,70.18
2023-05-14T20:42:40.897Z,70.97
2023-05-14T20:45:10.642Z,70.97
2023-05-14T20:47:38.871Z,70.73
2023-05-14T20:50:12.427Z,72.70
2023-05-14T20:52:43.265Z,74.08
2023-05-14T20:55:14.973Z,72.42
2023-05-14T20:57:44.321Z,72.24
2023-05-14T21:00:15.753Z,72.32
2023-05-14T21:02:48.789Z,73.74
2023-05-14T21:05:25.666Z,74.30
2023-05-14T21:07:53.911Z,73.95
2023-05-14T21:10:25.897Z,74.78
2023-05-14T21:12:54.041Z,76.05
2023-05-14T21:15:22.820Z,77.43
2023-05-14T21:17:53.101Z,78.79
2023-05-14T21:20:45.841Z,78.28
2023-05-14T21:23:15.064Z,79.14
2023-05-14T21:25:47.630Z,79.08
2023-05-14T21:28:16.134Z,77.60
2023-05-14T21:30:46.492Z,77.64
2023-05-14T21:33:19.275Z,76.84
2023-05-14T21:35:54.610Z,75.77
2023-05-14T21:38:25.971Z,74.70
2023-05-14T21:40:56.346Z,74.63
2023-05-14T21:43:24.264Z,74.03
2023-05-14T21:45:52.643Z,72.45
2023-05-14T21:48:23.611Z,71.21
2023-05-14T21:50:53.306Z,70.45
2023-05-14T21:53:21.642Z,70.89
2023-05-14T21:55:49.850Z,70.54
2023-05-14T21:58:22.902Z,70.18
2023-05-14T22:00:51.115Z,69.19
2023-05-14T22:03:27.752Z,68.52
2023-05-14T22:05:59.747Z,67.81
2023-05-14T22:08:31.012Z,68.10
2023-05-14T22:11:04.236Z,67.45
2023-05-14T22:13:34.131Z,67.16
2023-05-14T22:16:12.287Z,69.16
2023-05-14T22:18:43.763Z,70.27
2023-05-14T22:21:13.757Z,69.22
2023-05-14T22:23:41.526Z,69.08
2023-05-14T22:26:12.466Z,68.27
2023-05-14T22:28:43.580Z,69.09
2023-05-14T22:31:12.070Z,68.71
2023-05-14T22:33:40.470Z,69.08
2023-05-14T22:36:08.889Z,70.76
2023-05-14T22:38:43.728Z,71.31
2023-05-14T22:41:13.784Z,73.22
2023-05-14T22:43:44.977Z,73.63
2023-05-14T22:46:18.764Z,74.46
2023-05-14T22:48:49.181Z,75.51
2023-05-14T22:51:20.644Z,76.30
2023-05-14T22:53:51.843Z,76.42
2023-05-14T22:56:21.833Z,75.72
2023-05-14T22:58:50.312Z,74.21
2023-05-14T23:01:18.965Z,73.37
2023-05-14T23:03:47.392Z,75.04
2023-05-14T23:06:20.001Z,74.61
2023-05-14T23:08:54.603Z,73.91
2023-05-14T23:11:23.170Z,74.59
2023-05-14T23:13:54.644Z,75.67
2023-05-14T23:16:22.462Z,75.99
2023-05-14T23:18:54.498Z,74.42
2023-05-14T23:21:24.773Z,74.97
2023-05-14T23:23:56.364Z,75.27
2023-05-14T23:26:24.116Z,74.94
2023-05-14T23:29:10.447Z,74.00
2023-05-14T23:31:38.744Z,76.73
2023-05-14T23:34:06.887Z,75.17
2023-05-14T23:36:37.716Z,75.07
2023-05-14T23:39:09.838Z,75.03
2023-05-14T23:41:40.024Z,75.16
2023-05-14T23:44:08.764Z,75.78
2023-05-14T23:46:36.483Z,74.20
2023-05-14T23:49:05.968Z,75.69
2023-05-14T23:51:33.953Z,76.21
2023-05-14T23:54:03.391Z,76.03
2023-05-14T23:56:35.170Z,75.81
2023-05-14T23:59:03.772Z,75.64
